首页
METAR-TAF:

METAR-TAF

机场 :

乃磨機場

纳奈莫, 不列颠哥伦比亚, 加拿大

纬度: 49-03N, 经度: 123-52W, 海拔: 28米

当前天气观测

该预报发布于37分钟前的15:38 UTC
静风
温度 6°C
湿度 100%
气压 1014 hPa
能見度: 9.7公里
多云层高于600英尺
多云层高于2600英尺
阴天层高于5500英尺
小雨, 轻雾

METAR: CYCD 131538Z 00000KT 6SM -RA BR BKN006 BKN026 OVC055 06/06 A2993 RMK SF5SC2SC1 SLP138

时间: 08:15 (16:15 UTC)

预报

该预报发布于30分钟前的15:45 UTC
预报有效从13日的 16点(UTC)到 14日的 04点(UTC)
风速3节,风向多变
能見度: 9.7公里
散云层高于2000英尺
多云层高于5000英尺
阴天层高于7000英尺
小雨
短暂存在
从 13日的 16点(UTC)到 13日的 20点(UTC)
能見度: 4.8公里
多云层高于600英尺
多云层高于2500英尺
阴天层高于5000英尺
小阵雨, 轻雾
从 13日的 2000点(UTC)
风速3节,风向多变
能見度: 10公里
散云层高于2000英尺
多云层高于5000英尺
阴天层高于7000英尺
小雨
短暂存在
从 13日的 20点(UTC)到 14日的 04点(UTC)
能見度: 8.0公里
少量云层高于800英尺
多云层高于2000英尺
阴天层高于5000英尺
小阵雨, 轻雾

TAF: CYCD 131545Z 1316/1404 VRB03KT 6SM -RA SCT020 BKN050 OVC070 TEMPO 1316/1320 3SM -SHRA BR BKN006 BKN025 OVC050 FM132000 VRB03KT P6SM -RA SCT020 BKN050 OVC070 TEMPO 1320/1404 5SM -SHRA BR FEW008 BKN020 OVC050 RMK NXT FCST BY 131800Z

超过4000个机场的气象观测和天气预报(METAR&TAF报告)。

可查询的气象台以黄色和红色小点在地图上表示。

将鼠标移到小点上方,可查看气象台名称。

然后点击查看天气观测和预报。

如需切换地图:点击带黑十字的绿色按钮放大地图;点击带横线的绿色按钮缩小地图;或者点击绿色箭头查看邻近地区的地图。


METAR-TAF: